This is the latest recevied weather packets stored in our database for station/object XE2KK-10. If no packets are shown the sender has not sent any weather packets the latest 1 day(s).
| Time | Temp. | Humidity | Pressure | Rain* | Wind** | Luminosity | Snow |
|---|---|---|---|---|---|---|---|
| 1778099653 | 40° C | 11% | 1007 hPa | 0 mm | - | 749 W/m² | - |
| 1778099353 | 40° C | 12% | 1007.3 hPa | 0 mm | - | 763 W/m² | - |
| 1778099053 | 40° C | 12% | 1007.2 hPa | 0 mm | - | 776 W/m² | - |
| 1778097853 | 38.89° C | 15% | 1007.5 hPa | 0 mm | - | 798 W/m² | - |
| 1778097553 | 38.89° C | 12% | 1007.7 hPa | 0 mm | - | 824 W/m² | - |
| 1778097253 | 38.89° C | 15% | 1007.3 hPa | 0 mm | - | 838 W/m² | - |
| 1778096053 | 37.78° C | 23% | 1008.2 hPa | 0 mm | - | 866 W/m² | - |
| 1778095453 | 37.22° C | 24% | 1008.4 hPa | 0 mm | - | 796 W/m² | - |
| 1778094253 | 37.78° C | 23% | 1008.7 hPa | 0 mm | - | 837 W/m² | - |
| 1778093953 | 37.78° C | 25% | 1008.8 hPa | 0 mm | - | 827 W/m² | - |
| 1778093653 | 36.67° C | 28% | 1009 hPa | 0 mm | - | 806 W/m² | - |
| 1778092153 | 36.67° C | 29% | 1009.2 hPa | 0 mm | - | 851 W/m² | - |
| 1778091853 | 35.56° C | 29% | 1009.4 hPa | 0 mm | - | 864 W/m² | - |
| 1778090653 | 34.44° C | 39% | 1009.8 hPa | 0 mm | - | 957 W/m² | - |
| 1778090353 | 35° C | 38% | 1009.8 hPa | 0 mm | - | 812 W/m² | - |
| 1778090053 | 33.89° C | 41% | 1009.8 hPa | 0 mm | - | 845 W/m² | - |
| 1778088853 | 33.33° C | 44% | 1010.3 hPa | 0 mm | - | 416 W/m² | - |
| 1778088553 | 33.33° C | 45% | 1010.3 hPa | 0 mm | - | 748 W/m² | - |
| 1778088253 | 33.33° C | 43% | 1010.1 hPa | 0 mm | - | 555 W/m² | - |
| 1778087053 | 32.78° C | 48% | 1010.3 hPa | 0 mm | - | 393 W/m² | - |
| 1778086753 | 33.33° C | 48% | 1010.2 hPa | 0 mm | - | 828 W/m² | - |
| 1778086453 | 32.78° C | 49% | 1010.4 hPa | 0 mm | - | 810 W/m² | - |
| 1778084953 | 31.11° C | 56% | 1010.5 hPa | 0 mm | - | 818 W/m² | - |
| 1778084653 | 31.11° C | 57% | 1010.7 hPa | 0 mm | - | 874 W/m² | - |
| 1778084052 | 31.11° C | 58% | 1010.6 hPa | 0 mm | - | 761 W/m² | - |
* Rain latest hour (hover to see other rain measurements)
** Current wind speed in m/s (hover to see current wind gust speed)